Time;durP1;ratioP1;P1;durP2;ratioP2;P2;SDS_P1;SDS_P2;PMS_P1;PMS_P2;Temp;Humidity;BMP_temperature;BMP_pressure;BME280_temperature;BME280_humidity;BME280_pressure;Samples;Min_cycle;Max_cycle;Signal;HPM_P1;HPM_P2
2022/10/01 00:00:23;;;;;;;7.70;4.95;;;;;;;19.55;69.16;100774.31;5009976;28;20030;-70
2022/10/01 00:02:49;;;;;;;9.52;5.55;;;;;;;19.61;68.62;100773.44;5010280;28;20488;-70
2022/10/01 00:05:15;;;;;;;8.02;4.47;;;;;;;19.49;67.65;100776.91;5010335;28;20532;-67
2022/10/01 00:07:43;;;;;;;8.82;5.50;;;;;;;19.27;67.11;100744.50;5014001;28;20022;-72
2022/10/01 00:10:10;;;;;;;11.70;4.85;;;;;;;19.49;67.10;100776.00;5031095;28;20095;-70
2022/10/01 00:12:37;;;;;;;7.95;4.65;;;;;;;19.44;67.04;100770.78;5030872;28;20500;-66
2022/10/01 00:15:08;;;;;;;10.05;4.95;;;;;;;19.42;65.93;100776.88;5031082;28;20052;-71
2022/10/01 00:17:34;;;;;;;10.70;4.88;;;;;;;19.48;64.05;100779.53;5031137;28;20039;-72
2022/10/01 00:20:01;;;;;;;9.27;5.03;;;;;;;19.10;63.33;100726.06;5031156;28;20041;-70
2022/10/01 00:22:26;;;;;;;7.40;4.78;;;;;;;19.37;64.07;100777.69;5030997;28;20037;-71
2022/10/01 00:24:51;;;;;;;8.65;4.78;;;;;;;19.39;64.50;100780.34;5030953;28;20051;-73
2022/10/01 00:27:17;;;;;;;9.40;5.28;;;;;;;19.26;65.71;100760.19;5030742;28;20080;-74
2022/10/01 00:29:44;;;;;;;8.65;4.88;;;;;;;19.37;66.34;100768.97;5030914;28;20495;-73
2022/10/01 00:32:09;;;;;;;12.35;4.63;;;;;;;19.22;66.55;100762.78;5046975;28;20502;-69
2022/10/01 00:34:35;;;;;;;6.85;4.45;;;;;;;19.33;67.30;100794.25;5030737;28;20040;-67
2022/10/01 00:37:00;;;;;;;8.38;4.63;;;;;;;19.19;67.47;100780.19;5030874;28;20053;-70
2022/10/01 00:39:25;;;;;;;8.20;4.55;;;;;;;19.23;67.18;100787.22;5030849;28;20033;-70
2022/10/01 00:41:51;;;;;;;7.50;4.57;;;;;;;19.23;66.14;100775.00;5016076;28;20037;-72
2022/10/01 00:44:32;;;;;;;8.43;4.47;;;;;;;19.20;65.94;100780.25;5013598;28;20030;-67
2022/10/01 00:47:20;;;;;;;7.80;4.25;;;;;;;19.14;66.89;100780.19;5013651;28;20105;-66
2022/10/01 00:49:48;;;;;;;9.50;4.18;;;;;;;19.03;67.57;100787.09;5013037;28;20045;-71
2022/10/01 00:52:17;;;;;;;9.18;4.68;;;;;;;18.90;67.77;100776.53;5012748;28;20125;-72
2022/10/01 00:54:49;;;;;;;;;;;;;;;18.78;68.80;100781.66;5013503;28;20038;-67
2022/10/01 00:57:20;;;;;;;8.90;4.30;;;;;;;18.59;69.96;100785.81;5013343;28;19914;-71
2022/10/01 00:59:46;;;;;;;7.72;4.38;;;;;;;18.47;71.44;100776.13;5013219;28;20034;-70
2022/10/01 01:02:12;;;;;;;6.93;4.28;;;;;;;18.48;71.39;100766.53;5012933;28;20503;-68
2022/10/01 01:04:40;;;;;;;7.80;5.05;;;;;;;18.43;71.98;100779.59;5012668;28;20022;-67
2022/10/01 01:07:07;;;;;;;8.27;4.30;;;;;;;18.49;72.29;100771.81;5013228;28;20025;-73
2022/10/01 01:09:43;;;;;;;7.75;4.65;;;;;;;18.57;71.62;100780.59;5013077;28;20033;-68
2022/10/01 01:12:32;;;;;;;7.65;4.30;;;;;;;18.43;72.78;100777.84;5012674;28;20511;-66
2022/10/01 01:15:16;;;;;;;9.65;4.72;;;;;;;18.41;73.02;100778.69;5012472;28;20071;-72
2022/10/01 01:17:50;;;;;;;8.10;4.55;;;;;;;18.43;73.29;100779.59;5011541;28;20504;-69
2022/10/01 01:20:28;;;;;;;7.70;4.13;;;;;;;18.48;73.13;100777.00;5012421;28;20041;-67
2022/10/01 01:23:02;;;;;;;8.00;4.88;;;;;;;18.61;72.60;100783.25;5012484;28;20492;-67
2022/10/01 01:26:00;;;;;;;7.00;4.72;;;;;;;18.51;72.84;100750.91;5012320;28;20037;-67
2022/10/01 01:28:35;;;;;;;7.40;4.47;;;;;;;18.65;72.03;100764.09;5012591;28;20030;-71
2022/10/01 01:31:06;;;;;;;8.20;4.43;;;;;;;18.41;71.46;100742.97;5012580;28;20026;-67
2022/10/01 01:33:34;;;;;;;10.10;4.55;;;;;;;18.65;70.38;100766.72;5012266;28;20030;-67
2022/10/01 01:36:08;;;;;;;12.18;4.60;;;;;;;18.64;70.84;100759.72;5012071;28;20026;-66
2022/10/01 01:38:53;;;;;;;6.78;4.63;;;;;;;18.64;71.33;100772.78;4999767;28;20029;-71
2022/10/01 01:41:21;;;;;;;7.65;4.88;;;;;;;18.52;71.67;100763.97;5012031;28;20485;-69
2022/10/01 01:43:50;;;;;;;8.20;5.25;;;;;;;18.58;72.07;100768.41;5012156;28;20475;-68
2022/10/01 01:46:16;;;;;;;;;;;;;;;18.61;72.62;100781.50;5012283;28;20036;-69
2022/10/01 01:48:46;;;;;;;7.30;4.68;;;;;;;18.58;74.01;100778.88;5012379;28;19925;-67
2022/10/01 01:51:19;;;;;;;9.95;5.38;;;;;;;18.31;74.56;100750.72;5012057;28;20022;-72
2022/10/01 01:53:45;;;;;;;8.02;5.00;;;;;;;18.34;75.02;100775.13;5011932;28;20519;-73
2022/10/01 01:56:10;;;;;;;9.00;5.18;;;;;;;18.21;75.21;100763.69;5011982;28;20046;-73
2022/10/01 01:58:38;;;;;;;8.77;4.50;;;;;;;18.24;75.19;100762.84;5012012;28;20129;-70
2022/10/01 02:01:04;;;;;;;8.30;5.15;;;;;;;18.17;75.58;100780.19;5011775;28;20095;-68
2022/10/01 02:03:34;;;;;;;7.53;5.13;;;;;;;18.09;75.75;100781.84;5011948;28;20408;-67
2022/10/01 02:05:59;;;;;;;10.63;5.38;;;;;;;17.84;76.60;100758.00;5011734;28;20025;-70
2022/10/01 02:09:14;;;;;;;11.77;5.82;;;;;;;17.85;77.54;100790.25;5011667;28;20030;-67
2022/10/01 02:11:53;;;;;;;8.32;4.90;;;;;;;17.79;78.81;100798.88;4970215;28;20043;-73
2022/10/01 02:14:53;;;;;;;10.38;5.80;;;;;;;17.68;79.08;100780.44;4970194;28;20481;-73
2022/10/01 02:17:42;;;;;;;8.25;5.20;;;;;;;17.57;79.48;100767.28;4969957;28;20516;-73
2022/10/01 02:20:27;;;;;;;10.02;5.53;;;;;;;17.71;79.33;100761.38;4912684;29;20044;-66
2022/10/01 02:23:03;;;;;;;10.00;5.63;;;;;;;17.72;78.40;100765.69;4912699;29;20040;-69
2022/10/01 02:25:34;;;;;;;8.05;5.25;;;;;;;17.61;78.43;100774.28;4912498;29;20047;-68
2022/10/01 02:28:06;;;;;;;7.15;5.47;;;;;;;17.21;81.10;100776.34;4912098;29;20024;-67
2022/10/01 02:30:36;;;;;;;10.05;5.65;;;;;;;17.28;81.75;100788.66;4912476;29;20459;-72
2022/10/01 02:33:02;;;;;;;;;;;;;;;17.28;82.29;100796.47;4913161;29;20052;-70
2022/10/01 02:35:31;;;;;;;9.30;5.80;;;;;;;17.35;82.15;100804.38;4912491;29;19915;-70
2022/10/01 02:38:00;;;;;;;9.47;6.00;;;;;;;17.42;82.03;100817.53;4912133;29;20861;-67
2022/10/01 02:40:28;;;;;;;8.77;5.53;;;;;;;17.49;81.43;100807.19;4912090;29;20047;-70
2022/10/01 02:42:58;;;;;;;10.43;5.93;;;;;;;17.49;81.36;100788.91;4912061;29;20470;-67
2022/10/01 02:45:26;;;;;;;11.02;5.22;;;;;;;17.29;80.32;100752.97;4912079;29;20032;-66
2022/10/01 02:48:15;;;;;;;9.50;5.13;;;;;;;17.61;78.74;100808.22;4911205;29;20056;-66
2022/10/01 02:50:52;;;;;;;10.23;5.78;;;;;;;17.59;79.27;100804.69;4931243;29;20127;-71
2022/10/01 02:53:26;;;;;;;11.30;5.70;;;;;;;17.70;78.76;100815.31;4930961;29;20391;-68
2022/10/01 02:55:52;;;;;;;7.93;5.43;;;;;;;17.65;78.88;100803.94;4931136;29;20039;-68
2022/10/01 02:58:19;;;;;;;10.32;5.63;;;;;;;17.60;78.92;100819.53;4987433;28;20508;-67
2022/10/01 03:00:44;;;;;;;6.93;5.07;;;;;;;17.35;80.11;100823.53;4988786;28;20041;-67
2022/10/01 03:03:10;;;;;;;10.00;5.25;;;;;;;17.35;80.06;100822.66;4988824;28;20042;-67
2022/10/01 03:05:35;;;;;;;9.35;5.32;;;;;;;17.27;80.35;100802.53;4988627;28;20022;-70
2022/10/01 03:08:01;;;;;;;6.63;4.90;;;;;;;17.45;79.74;100820.19;4991356;28;20100;-69
2022/10/01 03:10:26;;;;;;;6.72;5.10;;;;;;;17.50;79.36;100830.69;5010875;28;20404;-66
2022/10/01 03:12:51;;;;;;;9.57;4.78;;;;;;;17.48;79.29;100824.56;5010822;28;20034;-67
2022/10/01 03:15:18;;;;;;;8.15;4.88;;;;;;;17.33;78.63;100796.50;5010820;28;20109;-70
2022/10/01 03:17:49;;;;;;;7.88;5.00;;;;;;;17.41;79.04;100841.03;5010713;28;20033;-67
2022/10/01 03:20:14;;;;;;;9.50;5.10;;;;;;;17.36;79.40;100847.88;5041316;28;20407;-70
2022/10/01 03:22:43;;;;;;;11.63;5.47;;;;;;;17.28;79.90;100859.09;5011006;28;20033;-69
2022/10/01 03:25:08;;;;;;;7.97;5.00;;;;;;;17.23;80.19;100860.72;5010705;28;20369;-70
2022/10/01 03:27:33;;;;;;;11.05;5.15;;;;;;;17.16;80.60;100844.97;5010485;28;20029;-74
2022/10/01 03:29:59;;;;;;;12.90;5.63;;;;;;;17.10;80.99;100856.19;5010839;28;20025;-70
2022/10/01 03:32:24;;;;;;;8.52;4.68;;;;;;;16.92;81.80;100848.91;5010210;28;20033;-72
2022/10/01 03:34:50;;;;;;;8.65;5.53;;;;;;;16.74;82.71;100855.53;5010555;28;20068;-69
2022/10/01 03:37:15;;;;;;;8.73;4.63;;;;;;;16.81;82.46;100852.19;5010227;28;20109;-68
2022/10/01 03:39:40;;;;;;;14.60;6.50;;;;;;;16.66;82.79;100810.22;5010352;28;20105;-70
2022/10/01 03:42:09;;;;;;;13.40;6.75;;;;;;;16.90;81.74;100841.03;5028870;28;20022;-72
2022/10/01 03:44:34;;;;;;;17.55;7.78;;;;;;;16.76;80.96;100813.84;5014511;28;20034;-69
2022/10/01 03:47:00;;;;;;;12.55;7.50;;;;;;;16.87;81.57;100843.59;5014669;28;20029;-70
2022/10/01 03:49:26;;;;;;;15.00;7.18;;;;;;;16.79;81.60;100819.13;5014668;28;20113;-69
2022/10/01 03:51:51;;;;;;;8.65;6.25;;;;;;;17.09;81.07;100844.84;5014204;28;20392;-70
2022/10/01 03:54:16;;;;;;;8.50;5.82;;;;;;;17.17;80.80;100841.50;5014460;28;20025;-70
2022/10/01 03:56:42;;;;;;;9.43;5.30;;;;;;;17.16;80.58;100830.19;5014294;28;20080;-69
2022/10/01 03:59:09;;;;;;;11.50;5.25;;;;;;;17.26;80.33;100852.09;5014406;28;20490;-66
2022/10/01 04:01:35;;;;;;;11.63;6.05;;;;;;;17.19;80.25;100840.66;5014224;28;20030;-69
2022/10/01 04:04:01;;;;;;;10.55;6.10;;;;;;;17.08;80.22;100830.06;5013739;28;20026;-69
2022/10/01 04:06:26;;;;;;;15.73;6.38;;;;;;;17.14;80.54;100860.59;5014290;28;20461;-70
2022/10/01 04:08:51;;;;;;;7.22;5.57;;;;;;;17.11;81.73;100864.03;5013962;28;20033;-72
2022/10/01 04:11:17;;;;;;;9.95;5.95;;;;;;;16.98;81.69;100857.75;5014212;28;20108;-72
2022/10/01 04:13:43;;;;;;;10.75;6.40;;;;;;;16.60;83.57;100878.75;5013718;28;20026;-69
2022/10/01 04:16:09;;;;;;;12.73;6.28;;;;;;;16.31;85.15;100865.16;5013698;28;20029;-69
2022/10/01 04:18:34;;;;;;;9.82;6.10;;;;;;;16.18;85.21;100841.47;5013355;28;20116;-69
2022/10/01 04:21:00;;;;;;;8.85;5.68;;;;;;;16.54;84.85;100883.00;5013918;28;20097;-67
2022/10/01 04:23:26;;;;;;;12.50;5.45;;;;;;;16.63;83.70;100881.41;5014079;28;20465;-69
2022/10/01 04:25:52;;;;;;;14.10;5.80;;;;;;;16.71;82.89;100868.53;5013626;28;20034;-73
2022/10/01 04:28:18;;;;;;;8.73;5.88;;;;;;;16.67;82.76;100861.50;5013865;28;20030;-70
2022/10/01 04:30:45;;;;;;;10.55;6.00;;;;;;;16.74;82.54;100862.50;5013443;28;20377;-69
2022/10/01 04:33:14;;;;;;;7.85;5.68;;;;;;;16.73;82.82;100869.44;5013183;28;20108;-70
2022/10/01 04:35:40;;;;;;;9.65;6.32;;;;;;;16.71;83.08;100867.66;5011345;28;20030;-67
2022/10/01 04:38:15;;;;;;;12.57;7.38;;;;;;;16.76;83.58;100856.47;5013628;28;20037;-72
2022/10/01 04:40:41;;;;;;;11.27;7.00;;;;;;;16.75;84.25;100857.31;5013459;28;20480;-70
2022/10/01 04:43:08;;;;;;;9.32;6.82;;;;;;;16.76;84.62;100861.69;5013470;28;20038;-71
2022/10/01 04:45:36;;;;;;;12.80;6.60;;;;;;;16.79;84.58;100863.47;5013168;28;20034;-68
2022/10/01 04:48:02;;;;;;;15.02;8.40;;;;;;;16.54;85.14;100838.69;5014049;28;20098;-68
2022/10/01 04:50:27;;;;;;;15.20;8.77;;;;;;;16.65;86.01;100869.28;5013074;28;20026;-66
2022/10/01 04:52:53;;;;;;;21.02;13.65;;;;;;;16.60;87.07;100870.94;5013470;28;20108;-67
2022/10/01 04:55:21;;;;;;;71.35;33.15;;;;;;;16.58;86.33;100870.03;5027203;28;20034;-70
2022/10/01 04:57:46;;;;;;;246.45;138.50;;;;;;;16.62;85.93;100870.97;5013064;28;20026;-69
2022/10/01 05:00:16;;;;;;;229.40;130.70;;;;;;;16.58;86.60;100867.41;5007799;28;20030;-71
2022/10/01 05:02:46;;;;;;;129.00;73.93;;;;;;;16.51;85.60;100870.78;5013559;28;20034;-70
2022/10/01 05:05:11;;;;;;;70.20;35.92;;;;;;;16.29;86.79;100877.28;5012868;28;20034;-73
2022/10/01 05:07:38;;;;;;;24.52;14.30;;;;;;;15.99;89.13;100884.50;5013309;28;20037;-75
2022/10/01 05:10:05;;;;;;;16.85;10.82;;;;;;;16.19;88.80;100878.84;5013412;28;20120;-74
2022/10/01 05:12:30;;;;;;;34.53;19.70;;;;;;;16.41;88.84;100866.22;5013072;28;20499;-71
2022/10/01 05:14:56;;;;;;;26.58;15.30;;;;;;;16.62;88.45;100864.03;5013212;28;20124;-71
2022/10/01 05:17:22;;;;;;;29.42;18.35;;;;;;;16.58;87.94;100832.66;5013034;28;20036;-72
2022/10/01 05:19:48;;;;;;;18.83;12.68;;;;;;;16.92;88.18;100893.25;5013080;28;20447;-68
2022/10/01 05:22:14;;;;;;;53.20;29.50;;;;;;;16.66;88.12;100870.19;5013134;28;20040;-71
2022/10/01 05:24:40;;;;;;;86.55;47.58;;;;;;;16.93;87.42;100901.09;5012935;28;20042;-73
2022/10/01 05:27:12;;;;;;;90.70;51.60;;;;;;;17.01;87.76;100887.31;5012663;28;20404;-73
2022/10/01 05:29:41;;;;;;;64.15;38.28;;;;;;;17.23;87.47;100912.91;5013024;28;20026;-68
2022/10/01 05:32:08;;;;;;;43.65;27.20;;;;;;;17.39;87.12;100921.00;5013041;28;20030;-74
2022/10/01 05:34:34;;;;;;;26.40;15.80;;;;;;;17.45;87.12;100916.75;5012639;28;20034;-73
2022/10/01 05:37:01;;;;;;;20.67;13.80;;;;;;;17.57;86.60;100915.19;5012771;28;20025;-68
2022/10/01 05:39:27;;;;;;;20.25;11.85;;;;;;;17.67;85.68;100911.00;5027338;28;20046;-74
2022/10/01 05:41:54;;;;;;;22.05;12.70;;;;;;;17.75;85.68;100915.47;5012492;28;20057;-72
2022/10/01 05:44:22;;;;;;;19.92;13.25;;;;;;;17.84;85.30;100917.34;5010538;28;20665;-71
2022/10/01 05:46:49;;;;;;;25.63;14.07;;;;;;;17.99;84.91;100923.66;5012243;28;20041;-71
2022/10/01 05:49:16;;;;;;;23.77;14.65;;;;;;;17.85;84.44;100899.94;5012493;28;20056;-68
2022/10/01 05:51:42;;;;;;;18.40;12.18;;;;;;;18.20;84.66;100928.31;5012432;28;20463;-72
2022/10/01 05:54:10;;;;;;;16.58;11.13;;;;;;;18.29;83.72;100928.41;5012349;28;20515;-69
2022/10/01 05:56:36;;;;;;;16.52;9.07;;;;;;;18.45;83.43;100929.47;5012603;28;20040;-70
2022/10/01 05:59:02;;;;;;;13.65;8.90;;;;;;;18.58;82.44;100920.94;5012434;28;20030;-74
2022/10/01 06:01:28;;;;;;;10.35;7.85;;;;;;;18.62;82.88;100919.22;5012426;28;20033;-72
2022/10/01 06:03:54;;;;;;;11.40;7.13;;;;;;;18.78;82.28;100911.53;5011718;28;20396;-71
2022/10/01 06:06:21;;;;;;;10.00;6.22;;;;;;;18.85;81.54;100880.22;5012182;28;20033;-68
2022/10/01 06:08:46;;;;;;;9.10;5.03;;;;;;;18.95;81.14;100896.03;5011976;28;20033;-74
2022/10/01 06:11:12;;;;;;;14.60;5.38;;;;;;;19.07;79.74;100907.50;5012275;28;20030;-69
2022/10/01 06:13:37;;;;;;;9.60;5.95;;;;;;;19.20;79.58;100904.97;5012157;28;20038;-72
2022/10/01 06:16:03;;;;;;;11.73;6.10;;;;;;;19.36;79.32;100908.59;5011999;28;20503;-71
2022/10/01 06:18:28;;;;;;;10.05;5.40;;;;;;;19.47;78.68;100913.94;5012097;28;20034;-73
2022/10/01 06:20:53;;;;;;;11.52;5.75;;;;;;;19.53;77.76;100920.06;5011996;28;20030;-70
2022/10/01 06:23:19;;;;;;;10.00;5.72;;;;;;;19.61;77.38;100908.78;5011789;28;20108;-73
2022/10/01 06:25:46;;;;;;;14.35;6.32;;;;;;;19.60;77.63;100894.81;5012090;28;20491;-74
2022/10/01 06:28:13;;;;;;;11.48;5.88;;;;;;;19.76;77.04;100889.66;5011995;28;20026;-71
2022/10/01 06:30:39;;;;;;;12.23;6.35;;;;;;;19.80;76.81;100891.44;5011927;28;20026;-72
2022/10/01 06:33:10;;;;;;;10.35;5.80;;;;;;;19.86;76.68;100887.16;5011657;28;20048;-71
2022/10/01 06:35:40;;;;;;;8.40;5.30;;;;;;;19.91;76.03;100874.03;5011701;28;20022;-71
2022/10/01 06:38:06;;;;;;;12.82;5.28;;;;;;;19.85;76.54;100869.66;5011567;28;20061;-70
2022/10/01 06:40:32;;;;;;;13.00;5.32;;;;;;;19.77;77.23;100879.19;5011518;28;20092;-68
2022/10/01 06:42:57;;;;;;;10.00;5.60;;;;;;;20.00;76.73;100879.34;5059094;28;20477;-69
2022/10/01 06:45:36;;;;;;;11.52;6.00;;;;;;;20.22;76.45;100875.94;5011523;28;20044;-69
2022/10/01 06:48:02;;;;;;;10.15;5.93;;;;;;;20.36;75.40;100874.22;5011407;28;20050;-68
2022/10/01 06:50:29;;;;;;;8.45;5.40;;;;;;;20.46;74.10;100870.78;5011477;28;20034;-68
2022/10/01 06:52:56;;;;;;;13.20;5.32;;;;;;;20.65;73.73;100878.69;5011507;28;20034;-74
2022/10/01 06:55:25;;;;;;;9.65;5.30;;;;;;;20.76;73.64;100877.00;5011488;28;20060;-74
2022/10/01 06:57:55;;;;;;;11.00;5.30;;;;;;;20.91;72.86;100867.38;5011390;28;20473;-69
2022/10/01 07:00:21;;;;;;;13.23;5.68;;;;;;;21.15;72.18;100877.00;5011401;28;20037;-72
2022/10/01 07:02:47;;;;;;;11.82;5.95;;;;;;;21.05;76.07;100836.75;5011208;28;20022;-71
2022/10/01 07:05:13;;;;;;;10.48;6.03;;;;;;;21.26;74.66;100880.50;5010912;28;20454;-75
2022/10/01 07:07:38;;;;;;;10.95;5.43;;;;;;;21.37;72.71;100866.47;5011221;28;20056;-68
2022/10/01 07:10:06;;;;;;;9.43;5.70;;;;;;;21.42;71.80;100862.97;5011152;28;20484;-68
2022/10/01 07:12:33;;;;;;;12.23;5.57;;;;;;;21.16;73.51;100848.13;5008593;28;20494;-72
2022/10/01 07:14:59;;;;;;;10.45;6.00;;;;;;;21.29;74.26;100877.00;5007897;28;20078;-71
2022/10/01 07:17:25;;;;;;;9.82;5.88;;;;;;;21.42;71.77;100855.09;5008443;28;20484;-68
2022/10/01 07:19:51;;;;;;;10.20;5.85;;;;;;;21.73;71.60;100846.28;5008787;28;20044;-69
2022/10/01 07:22:19;;;;;;;12.88;5.47;;;;;;;21.85;71.24;100822.59;5008631;28;20072;-69
2022/10/01 07:24:45;;;;;;;14.82;5.53;;;;;;;21.87;70.36;100843.59;5008639;28;20551;-68
2022/10/01 07:27:13;;;;;;;10.05;5.25;;;;;;;21.95;70.01;100858.47;5008771;28;20030;-68
2022/10/01 07:29:38;;;;;;;8.75;5.35;;;;;;;21.99;69.05;100859.34;5008656;28;20495;-71
2022/10/01 07:32:07;;;;;;;9.60;4.75;;;;;;;21.83;69.49;100863.78;5008464;28;20032;-69
2022/10/01 07:34:34;;;;;;;8.73;4.70;;;;;;;21.99;69.84;100872.47;5008294;28;20045;-75
2022/10/01 07:36:59;;;;;;;9.25;4.55;;;;;;;22.18;69.16;100856.63;5008421;28;20042;-71
2022/10/01 07:39:25;;;;;;;6.93;4.40;;;;;;;22.43;67.11;100850.38;5008424;28;20440;-72
2022/10/01 07:41:50;;;;;;;6.60;4.32;;;;;;;22.41;66.35;100851.28;5008486;28;20496;-71
2022/10/01 07:44:17;;;;;;;7.53;4.10;;;;;;;22.65;66.01;100850.25;5008200;28;20077;-71
2022/10/01 07:46:42;;;;;;;7.85;4.18;;;;;;;22.49;65.42;100851.22;5008300;28;20034;-71
2022/10/01 07:49:08;;;;;;;6.85;4.05;;;;;;;22.49;63.94;100857.34;5008919;28;20097;-70
2022/10/01 07:51:35;;;;;;;8.05;4.07;;;;;;;22.61;63.68;100859.91;5010827;28;20026;-69
2022/10/01 07:54:01;;;;;;;6.28;4.40;;;;;;;22.69;63.44;100822.16;5010836;28;20033;-72
2022/10/01 07:56:27;;;;;;;6.93;4.28;;;;;;;22.95;61.44;100848.25;5010692;28;20021;-68
2022/10/01 07:58:56;;;;;;;9.52;4.20;;;;;;;22.97;61.84;100841.22;5010770;28;20535;-72
2022/10/01 08:01:21;;;;;;;5.70;4.10;;;;;;;23.02;62.27;100844.69;5010382;28;20026;-69
2022/10/01 08:03:51;;;;;;;8.48;5.43;;;;;;;23.25;61.16;100857.69;5010871;28;20037;-69
2022/10/01 08:06:18;;;;;;;6.75;4.00;;;;;;;23.35;61.65;100858.50;5010340;28;20037;-71
2022/10/01 08:08:45;;;;;;;7.85;4.10;;;;;;;23.34;61.88;100858.47;5009028;28;20068;-71
2022/10/01 08:11:13;;;;;;;6.88;4.22;;;;;;;23.44;62.59;100865.44;5007517;28;20515;-75
2022/10/01 08:13:40;;;;;;;11.18;4.68;;;;;;;23.53;62.38;100875.00;5010005;28;20022;-72
2022/10/01 08:16:08;;;;;;;20.75;14.20;;;;;;;23.65;61.66;100882.78;5009646;28;20627;-75
2022/10/01 08:18:34;;;;;;;9.23;4.00;;;;;;;23.94;58.66;100876.31;5010238;28;20040;-72
2022/10/01 08:21:03;;;;;;;7.22;4.15;;;;;;;24.05;58.01;100848.06;5009778;28;20516;-69
2022/10/01 08:23:32;;;;;;;7.38;3.92;;;;;;;24.22;57.53;100828.47;5010162;28;20041;-69
2022/10/01 08:26:06;;;;;;;8.43;4.20;;;;;;;24.61;56.56;100855.19;5006681;28;20226;-71
2022/10/01 08:28:35;;;;;;;7.47;3.42;;;;;;;24.70;56.40;100863.00;4997982;28;20109;-70
2022/10/01 08:31:08;;;;;;;7.60;3.90;;;;;;;24.81;56.83;100859.31;4994807;28;20037;-67
2022/10/01 08:33:35;;;;;;;7.65;4.05;;;;;;;24.82;55.35;100837.28;4993187;28;20504;-64
2022/10/01 08:36:02;;;;;;;11.07;4.28;;;;;;;25.01;55.62;100841.38;4993417;28;20034;-66
2022/10/01 08:38:28;;;;;;;6.20;3.65;;;;;;;25.20;54.34;100835.78;4993563;28;20026;-68
2022/10/01 08:40:53;;;;;;;6.72;3.78;;;;;;;25.30;56.05;100836.47;4992798;28;20037;-68
2022/10/01 08:43:32;;;;;;;6.45;3.95;;;;;;;25.41;53.99;100831.00;4994619;28;20420;-72
2022/10/01 08:46:05;;;;;;;9.40;4.95;;;;;;;25.52;54.53;100815.81;4992758;28;20026;-70
2022/10/01 08:48:33;;;;;;;8.20;4.45;;;;;;;25.65;53.16;100834.97;4992177;28;20046;-68
2022/10/01 08:51:11;;;;;;;6.32;3.92;;;;;;;25.73;51.75;100826.88;4993224;28;20453;-69
2022/10/01 08:53:52;;;;;;;14.55;4.13;;;;;;;25.87;51.59;100830.09;5011666;28;20029;-67
2022/10/01 08:56:28;;;;;;;8.02;4.32;;;;;;;26.01;51.05;100824.53;5011105;28;20029;-68
2022/10/01 08:58:59;;;;;;;19.42;12.25;;;;;;;26.12;51.94;100819.00;4993097;28;20086;-68
2022/10/01 09:01:28;;;;;;;10.75;5.43;;;;;;;26.19;51.58;100823.25;4994278;28;20040;-70
2022/10/01 09:03:55;;;;;;;6.82;4.25;;;;;;;25.95;53.51;100783.19;5002261;28;20125;-66
2022/10/01 09:06:27;;;;;;;8.20;4.57;;;;;;;26.15;51.27;100818.94;4993122;28;20027;-69
2022/10/01 09:09:01;;;;;;;10.52;4.80;;;;;;;25.71;51.44;100757.25;5002153;28;20022;-72
2022/10/01 09:11:50;;;;;;;8.02;4.25;;;;;;;26.07;48.88;100805.00;5000072;28;20038;-72
2022/10/01 09:14:34;;;;;;;7.25;3.97;;;;;;;26.26;48.54;100835.47;4992982;28;20041;-70
2022/10/01 09:17:10;;;;;;;6.38;3.67;;;;;;;26.43;51.30;100816.53;4992817;28;20026;-69
2022/10/01 09:19:35;;;;;;;7.57;4.10;;;;;;;26.53;49.77;100811.91;5000399;28;20745;-72
2022/10/01 09:22:29;;;;;;;6.18;3.40;;;;;;;26.54;46.87;100795.09;4996591;28;20030;-72
2022/10/01 09:25:03;;;;;;;4.32;3.20;;;;;;;26.79;46.85;100798.06;5006931;28;20022;-72
2022/10/01 09:27:32;;;;;;;6.90;3.80;;;;;;;27.05;47.82;100790.31;5011191;28;20034;-72
2022/10/01 09:30:02;;;;;;;6.78;3.55;;;;;;;27.30;46.31;100793.16;5010382;28;20041;-69
2022/10/01 09:32:35;;;;;;;7.50;3.58;;;;;;;27.42;50.56;100790.22;5012238;28;20480;-73
2022/10/01 09:35:13;;;;;;;6.75;3.60;;;;;;;27.48;46.81;100762.66;5008423;28;20105;-69
2022/10/01 09:37:52;;;;;;;6.38;3.17;;;;;;;27.59;46.47;100755.25;4994156;28;20076;-69
2022/10/01 09:40:48;;;;;;;9.25;4.25;;;;;;;27.72;45.10;100770.81;4990899;28;20018;-69
2022/10/01 09:43:18;;;;;;;10.48;5.38;;;;;;;27.61;44.52;100755.22;4992776;28;20120;-69
2022/10/01 09:45:44;;;;;;;18.20;8.57;;;;;;;27.60;48.37;100753.47;5002324;28;20076;-68
2022/10/01 09:48:17;;;;;;;7.28;3.67;;;;;;;27.56;44.04;100743.88;5001063;28;20062;-65
2022/10/01 09:50:57;;;;;;;14.93;4.78;;;;;;;27.48;45.30;100737.91;5004648;28;20026;-70
2022/10/01 09:53:29;;;;;;;12.77;4.00;;;;;;;27.90;44.43;100757.00;5006801;28;20042;-70
2022/10/01 09:56:04;;;;;;;7.43;3.70;;;;;;;28.16;43.23;100760.63;4967972;28;20516;-72
2022/10/01 09:58:33;;;;;;;5.72;3.20;;;;;;;28.28;43.18;100764.69;5007133;28;20499;-71
2022/10/01 10:01:00;;;;;;;7.10;3.85;;;;;;;28.19;43.37;100760.56;5009349;28;20038;-70
2022/10/01 10:03:30;;;;;;;7.72;3.38;;;;;;;28.30;44.72;100760.22;5008177;28;20037;-69
2022/10/01 10:06:01;;;;;;;6.47;3.65;;;;;;;28.34;44.00;100761.84;5007570;28;20042;-71
2022/10/01 10:08:32;;;;;;;48.85;23.35;;;;;;;28.46;43.93;100744.63;5007455;28;20037;-69
2022/10/01 10:10:59;;;;;;;7.32;3.78;;;;;;;28.61;43.54;100766.28;5006194;28;20030;-72
2022/10/01 10:13:38;;;;;;;8.98;4.00;;;;;;;28.71;43.12;100765.97;5005518;28;20037;-71
2022/10/01 10:16:31;;;;;;;9.45;4.88;;;;;;;28.82;42.90;100743.47;5008328;28;20136;-69
2022/10/01 10:19:23;;;;;;;8.43;3.50;;;;;;;28.69;42.27;100758.97;5003722;28;20034;-73
2022/10/01 10:21:55;;;;;;;8.25;3.80;;;;;;;28.55;46.28;100757.59;5008479;28;20033;-70
2022/10/01 10:24:31;;;;;;;8.52;4.43;;;;;;;28.46;44.12;100744.63;5010571;28;20022;-69
2022/10/01 10:26:59;;;;;;;6.40;3.90;;;;;;;28.31;44.51;100732.72;5010985;28;20022;-73
2022/10/01 10:29:31;;;;;;;7.72;4.35;;;;;;;28.39;48.00;100745.75;5010021;28;20738;-71
2022/10/01 10:32:06;;;;;;;9.00;4.25;;;;;;;28.55;47.20;100738.16;5011188;28;20029;-70
2022/10/01 10:34:38;;;;;;;7.13;4.53;;;;;;;28.54;45.18;100720.47;5005300;28;20037;-69
2022/10/01 10:37:12;;;;;;;57.72;33.03;;;;;;;28.75;44.94;100721.56;5008604;28;20033;-69
2022/10/01 10:39:41;;;;;;;11.13;5.95;;;;;;;28.82;43.62;100728.38;5007417;28;20052;-68
2022/10/01 10:42:13;;;;;;;33.03;23.08;;;;;;;28.94;46.05;100689.03;5009318;28;20105;-70
2022/10/01 10:44:42;;;;;;;17.52;11.73;;;;;;;29.10;43.05;100726.50;5010282;28;20048;-69
2022/10/01 10:47:12;;;;;;;19.35;9.60;;;;;;;29.40;42.20;100718.34;5010789;28;20054;-70
2022/10/01 10:49:45;;;;;;;14.10;5.35;;;;;;;29.48;42.17;100727.78;5008283;28;20492;-71
2022/10/01 10:52:32;;;;;;;6.68;4.15;;;;;;;29.30;42.05;100699.25;5005583;28;20030;-69
2022/10/01 10:54:59;;;;;;;35.33;21.70;;;;;;;29.37;43.87;100736.19;5003930;28;20057;-72
2022/10/01 10:57:28;;;;;;;11.60;7.68;;;;;;;29.28;43.34;100725.00;5023040;28;20714;-73
2022/10/01 10:59:55;;;;;;;17.65;4.57;;;;;;;29.19;42.39;100728.84;5008990;28;20420;-75
2022/10/01 11:02:24;;;;;;;10.93;4.50;;;;;;;29.18;42.33;100724.47;5006232;28;20061;-76
2022/10/01 11:04:51;;;;;;;4.50;2.90;;;;;;;29.08;41.88;100697.34;4995759;28;20427;-73
2022/10/01 11:07:22;;;;;;;29.67;16.80;;;;;;;29.05;42.60;100694.81;4992674;28;20034;-73
2022/10/01 11:10:06;;;;;;;23.67;12.45;;;;;;;28.78;43.00;100668.31;4990527;28;20084;-73
2022/10/01 11:12:55;;;;;;;6.10;3.63;;;;;;;28.80;42.12;100669.13;4993904;28;20121;-73
2022/10/01 11:15:45;;;;;;;6.32;3.80;;;;;;;28.83;42.33;100665.47;4990126;28;20467;-73
2022/10/01 11:18:17;;;;;;;11.75;7.50;;;;;;;28.97;42.54;100694.22;4990449;28;20070;-73
2022/10/01 11:20:52;;;;;;;12.75;6.22;;;;;;;28.95;44.87;100693.38;4990356;28;20481;-73
2022/10/01 11:23:26;;;;;;;19.48;15.38;;;;;;;28.65;43.38;100709.47;4990249;28;20109;-73
2022/10/01 11:26:12;;;;;;;27.30;18.55;;;;;;;28.73;42.89;100718.09;4990593;28;20037;-73
2022/10/01 11:28:48;;;;;;;17.60;13.60;;;;;;;28.79;41.58;100691.28;4990249;28;20163;-73
2022/10/01 11:31:46;;;;;;;10.63;4.53;;;;;;;28.90;41.42;100725.47;4990684;28;20023;-74
2022/10/01 11:34:23;;;;;;;10.55;6.53;;;;;;;29.12;42.06;100712.25;4987807;28;20043;-73